createdAt,value
2018-04-15T00:00:25.556Z,99.90
2018-04-15T00:02:52.560Z,99.90
2018-04-15T00:05:20.791Z,99.90
2018-04-15T00:07:47.841Z,99.90
2018-04-15T00:10:14.576Z,99.90
2018-04-15T00:12:42.051Z,99.90
2018-04-15T00:15:08.801Z,99.90
2018-04-15T00:17:35.544Z,99.90
2018-04-15T00:20:02.400Z,99.90
2018-04-15T00:22:36.174Z,99.90
2018-04-15T00:25:03.768Z,99.90
2018-04-15T00:27:30.818Z,99.90
2018-04-15T00:29:57.567Z,99.90
2018-04-15T00:32:24.252Z,99.90
2018-04-15T00:34:52.442Z,99.90
2018-04-15T00:37:19.239Z,99.90
2018-04-15T00:39:46.289Z,99.90
2018-04-15T00:42:13.035Z,99.90
2018-04-15T00:44:40.088Z,99.90
2018-04-15T00:47:07.025Z,99.90
2018-04-15T00:49:34.792Z,99.90
2018-04-15T00:52:02.476Z,99.90
2018-04-15T00:54:29.227Z,99.90
2018-04-15T00:56:55.947Z,99.90
2018-04-15T00:59:22.716Z,99.90
2018-04-15T01:01:49.411Z,99.90
2018-04-15T01:04:16.216Z,99.90
2018-04-15T01:06:43.364Z,99.90
2018-04-15T01:09:10.220Z,99.90
2018-04-15T01:11:36.959Z,99.90
2018-04-15T01:14:04.221Z,99.90
2018-04-15T01:16:31.513Z,99.90
2018-04-15T01:18:58.207Z,99.90
2018-04-15T01:21:25.688Z,99.90
2018-04-15T01:23:52.431Z,99.90
2018-04-15T01:26:19.194Z,99.90
2018-04-15T01:28:46.029Z,99.90
2018-04-15T01:31:12.885Z,99.90
2018-04-15T01:33:39.623Z,99.90
2018-04-15T01:36:06.366Z,99.90
2018-04-15T01:38:33.398Z,99.90
2018-04-15T01:41:00.886Z,99.90
2018-04-15T01:43:27.629Z,99.90
2018-04-15T01:45:54.664Z,99.90
2018-04-15T01:48:22.352Z,99.90
2018-04-15T01:50:49.028Z,99.90
2018-04-15T01:53:15.845Z,99.90
2018-04-15T01:55:42.588Z,99.90
2018-04-15T01:58:09.336Z,99.90
2018-04-15T02:00:36.388Z,99.90
2018-04-15T02:03:03.140Z,99.90
2018-04-15T02:05:30.995Z,99.90
2018-04-15T02:07:58.573Z,99.90
2018-04-15T02:10:25.423Z,99.90
2018-04-15T02:12:52.167Z,99.90
2018-04-15T02:15:18.914Z,99.90
2018-04-15T02:17:45.663Z,99.90
2018-04-15T02:20:12.409Z,99.90
2018-04-15T02:22:39.151Z,99.90
2018-04-15T02:25:06.413Z,99.90
2018-04-15T02:27:33.112Z,99.90
2018-04-15T02:29:59.769Z,99.90
2018-04-15T02:32:27.273Z,99.90
2018-04-15T02:34:54.010Z,99.90
2018-04-15T02:37:20.651Z,99.90
2018-04-15T02:39:49.016Z,99.90
2018-04-15T02:42:16.095Z,99.90
2018-04-15T02:44:43.067Z,99.90
2018-04-15T02:47:09.992Z,99.90
2018-04-15T02:49:37.149Z,99.90
2018-04-15T02:52:03.873Z,99.90
2018-04-15T02:54:32.584Z,99.90
2018-04-15T02:56:59.907Z,99.90
2018-04-15T02:59:27.217Z,99.90
2018-04-15T03:01:54.667Z,99.90
2018-04-15T03:04:21.414Z,99.90
2018-04-15T03:06:48.251Z,99.90
2018-04-15T03:09:15.008Z,99.90
2018-04-15T03:11:41.653Z,99.90
2018-04-15T03:14:09.369Z,99.90
2018-04-15T03:16:36.006Z,99.90
2018-04-15T03:19:02.711Z,99.90
2018-04-15T03:21:29.559Z,99.90
2018-04-15T03:23:56.612Z,99.90
2018-04-15T03:26:23.357Z,99.90
2018-04-15T03:28:50.206Z,99.90
2018-04-15T03:31:16.952Z,99.90
2018-04-15T03:33:50.658Z,99.90
2018-04-15T03:36:18.939Z,99.90
2018-04-15T03:38:46.401Z,99.90
2018-04-15T03:41:13.556Z,99.90
2018-04-15T03:43:40.304Z,99.90
2018-04-15T03:46:07.030Z,99.90
2018-04-15T03:48:34.486Z,99.90
2018-04-15T03:51:01.925Z,99.90
2018-04-15T03:53:28.625Z,99.90
2018-04-15T03:55:55.571Z,99.90
2018-04-15T03:58:22.225Z,99.90
2018-04-15T04:00:48.960Z,99.90
2018-04-15T04:03:15.929Z,99.90
2018-04-15T04:05:42.604Z,99.90
2018-04-15T04:08:09.407Z,99.90
2018-04-15T04:10:36.254Z,99.90
2018-04-15T04:13:03.307Z,99.90
2018-04-15T04:15:29.951Z,99.90
2018-04-15T04:18:08.671Z,99.90
2018-04-15T04:20:47.692Z,99.90
2018-04-15T04:23:26.400Z,99.90
2018-04-15T04:26:04.214Z,99.90
2018-04-15T04:28:31.162Z,99.90
2018-04-15T04:30:57.881Z,99.90
2018-04-15T04:33:25.298Z,99.90
2018-04-15T04:35:52.245Z,99.90
2018-04-15T04:38:20.475Z,99.90
2018-04-15T04:40:47.964Z,99.90
2018-04-15T04:43:14.709Z,99.90
2018-04-15T04:45:41.458Z,99.90
2018-04-15T04:48:09.017Z,99.90
2018-04-15T04:50:36.210Z,99.90
2018-04-15T04:53:04.459Z,99.90
2018-04-15T04:55:31.206Z,99.90
2018-04-15T04:57:57.897Z,99.90
2018-04-15T05:00:24.603Z,99.90
2018-04-15T05:02:51.649Z,99.90
2018-04-15T05:05:18.611Z,99.90
2018-04-15T05:07:45.349Z,99.90
2018-04-15T05:10:12.173Z,99.90
2018-04-15T05:12:40.173Z,99.90
2018-04-15T05:15:06.913Z,99.90
2018-04-15T05:17:33.968Z,99.90
2018-04-15T05:20:01.127Z,99.90
2018-04-15T05:22:27.871Z,99.90
2018-04-15T05:24:54.604Z,99.90
2018-04-15T05:27:21.413Z,99.90
2018-04-15T05:29:48.125Z,99.90
2018-04-15T05:32:14.881Z,99.90
2018-04-15T05:34:41.683Z,99.90
2018-04-15T05:37:09.167Z,99.90
2018-04-15T05:39:35.913Z,99.90
2018-04-15T05:42:02.659Z,99.90
2018-04-15T05:44:29.363Z,99.90
2018-04-15T05:46:56.094Z,99.90
2018-04-15T05:49:22.900Z,99.90
2018-04-15T05:51:49.643Z,99.90
2018-04-15T05:54:16.800Z,99.90
2018-04-15T05:56:44.366Z,99.90
2018-04-15T05:59:11.109Z,99.90
2018-04-15T06:01:37.782Z,99.90
2018-04-15T06:04:04.459Z,99.90
2018-04-15T06:06:31.145Z,99.90
2018-04-15T06:08:57.889Z,99.90
2018-04-15T06:11:24.741Z,99.90
2018-04-15T06:13:52.369Z,99.90
2018-04-15T06:16:19.166Z,99.90
2018-04-15T06:18:46.209Z,99.90
2018-04-15T06:21:13.400Z,98.10
2018-04-15T06:23:40.087Z,94.40
2018-04-15T06:26:07.516Z,77.60
2018-04-15T06:28:34.318Z,77.50
2018-04-15T06:31:01.375Z,73.30
2018-04-15T06:33:28.916Z,75.10
2018-04-15T06:35:56.375Z,83.40
2018-04-15T06:38:24.782Z,86.10
2018-04-15T06:40:51.631Z,86.10
2018-04-15T06:43:18.377Z,84.40
2018-04-15T06:45:45.124Z,79.30
2018-04-15T06:48:11.870Z,76.40
2018-04-15T06:50:38.620Z,68.80
2018-04-15T06:53:05.363Z,69.80
2018-04-15T06:55:32.111Z,68.90
2018-04-15T06:58:00.081Z,70.20
2018-04-15T07:00:26.830Z,69.30
2018-04-15T07:02:53.678Z,68.80
2018-04-15T07:05:20.332Z,65.80
2018-04-15T07:07:47.072Z,65.30
2018-04-15T07:10:13.813Z,66.70
2018-04-15T07:12:40.661Z,68.30
2018-04-15T07:15:07.510Z,69.40
2018-04-15T07:17:34.258Z,68.30
2018-04-15T07:20:02.231Z,67.30
2018-04-15T07:22:28.914Z,66.90
2018-04-15T07:24:55.624Z,67.60
2018-04-15T07:27:22.472Z,74.20
2018-04-15T07:29:49.221Z,78.50
2018-04-15T07:32:15.971Z,78.90
2018-04-15T07:34:42.999Z,76.50
2018-04-15T07:37:10.400Z,78.00
2018-04-15T07:39:37.114Z,78.00
2018-04-15T07:42:03.869Z,80.40
2018-04-15T07:44:30.614Z,81.00
2018-04-15T07:46:57.771Z,82.00
2018-04-15T07:49:24.411Z,82.60
2018-04-15T07:51:51.094Z,80.50
2018-04-15T07:54:17.907Z,80.40
2018-04-15T07:56:45.580Z,74.00
2018-04-15T07:59:12.323Z,72.00
2018-04-15T08:01:39.067Z,73.10
2018-04-15T08:04:05.800Z,73.20
2018-04-15T08:06:32.563Z,72.20
2018-04-15T08:08:59.309Z,72.50
2018-04-15T08:11:25.977Z,74.10
2018-04-15T08:13:52.905Z,74.70
2018-04-15T08:16:20.364Z,75.50
2018-04-15T08:18:50.078Z,75.00
2018-04-15T08:21:17.129Z,77.60
2018-04-15T08:23:43.820Z,78.30
2018-04-15T08:26:10.748Z,79.30
2018-04-15T08:28:37.439Z,78.60
2018-04-15T08:31:04.119Z,77.70
2018-04-15T08:33:30.862Z,79.70
2018-04-15T08:35:57.712Z,80.90
2018-04-15T08:38:24.663Z,81.50
2018-04-15T08:40:51.408Z,81.30
2018-04-15T08:43:18.809Z,80.60
2018-04-15T08:45:45.740Z,80.60
2018-04-15T08:48:12.569Z,80.50
2018-04-15T08:50:39.416Z,79.40
2018-04-15T08:53:06.165Z,79.90
2018-04-15T08:55:32.911Z,78.80
2018-04-15T08:58:00.987Z,80.80
2018-04-15T09:00:27.732Z,80.80
2018-04-15T09:02:54.560Z,79.80
2018-04-15T09:05:22.024Z,82.00
2018-04-15T09:07:49.505Z,81.70
2018-04-15T09:10:16.359Z,82.40
2018-04-15T09:12:43.107Z,81.90
2018-04-15T09:15:09.953Z,80.20
2018-04-15T09:17:37.313Z,82.10
2018-04-15T09:20:05.185Z,82.80
2018-04-15T09:22:32.779Z,82.80
2018-04-15T09:24:59.908Z,82.10
2018-04-15T09:27:26.648Z,81.80
2018-04-15T09:29:53.393Z,81.90
2018-04-15T09:32:20.448Z,80.40
2018-04-15T09:34:47.430Z,81.00
2018-04-15T09:37:14.246Z,80.50
2018-04-15T09:39:40.994Z,81.00
2018-04-15T09:42:07.852Z,80.60
2018-04-15T09:44:34.688Z,80.80
2018-04-15T09:47:02.151Z,79.00
2018-04-15T09:49:29.004Z,80.50
2018-04-15T09:51:55.851Z,80.30
2018-04-15T09:54:22.581Z,77.50
2018-04-15T09:56:49.567Z,78.60
2018-04-15T09:59:20.727Z,77.70
2018-04-15T10:01:48.014Z,77.90
2018-04-15T10:04:15.696Z,78.70
2018-04-15T10:06:43.130Z,77.70
2018-04-15T10:09:09.929Z,77.70
2018-04-15T10:11:36.675Z,76.80
2018-04-15T10:14:03.523Z,77.40
2018-04-15T10:16:30.375Z,75.60
2018-04-15T10:18:57.224Z,73.40
2018-04-15T10:21:24.275Z,73.30
2018-04-15T10:23:51.020Z,72.10
2018-04-15T10:26:17.654Z,70.50
2018-04-15T10:28:45.229Z,71.10
2018-04-15T10:31:12.562Z,71.00
2018-04-15T10:33:40.773Z,71.80
2018-04-15T10:36:08.336Z,69.50
2018-04-15T10:38:35.697Z,69.50
2018-04-15T10:41:02.942Z,70.30
2018-04-15T10:43:29.804Z,72.20
2018-04-15T10:45:57.367Z,73.20
2018-04-15T10:48:24.216Z,73.10
2018-04-15T10:50:50.963Z,72.10
2018-04-15T10:53:18.125Z,70.10
2018-04-15T10:55:46.720Z,71.40
2018-04-15T10:58:17.548Z,71.00
2018-04-15T11:00:44.600Z,75.30
2018-04-15T11:03:11.453Z,75.20
2018-04-15T11:05:38.306Z,73.80
2018-04-15T11:08:05.047Z,74.20
2018-04-15T11:10:31.996Z,75.30
2018-04-15T11:12:59.050Z,77.00
2018-04-15T11:15:25.795Z,79.50
2018-04-15T11:17:52.504Z,82.30
2018-04-15T11:20:20.009Z,88.20
2018-04-15T11:22:47.055Z,88.20
2018-04-15T11:25:14.418Z,83.40
2018-04-15T11:27:41.184Z,82.10
2018-04-15T11:30:08.118Z,81.60
2018-04-15T11:32:36.303Z,79.50
2018-04-15T11:35:03.559Z,79.30
2018-04-15T11:37:30.323Z,78.70
2018-04-15T11:39:57.098Z,74.60
2018-04-15T11:42:24.592Z,73.20
2018-04-15T11:44:51.462Z,73.50
2018-04-15T11:47:18.210Z,72.20
2018-04-15T11:49:45.152Z,66.90
2018-04-15T11:52:12.106Z,68.10
2018-04-15T11:54:38.955Z,68.60
2018-04-15T11:57:05.700Z,71.80
2018-04-15T11:59:32.853Z,72.10
2018-04-15T12:02:00.418Z,72.20
2018-04-15T12:04:27.166Z,72.20
2018-04-15T12:06:54.763Z,73.70
2018-04-15T12:09:21.584Z,73.40
2018-04-15T12:11:48.325Z,72.90
2018-04-15T12:14:15.074Z,72.80
2018-04-15T12:16:41.823Z,72.50
2018-04-15T12:19:08.567Z,71.70
2018-04-15T12:21:35.313Z,70.90
2018-04-15T12:24:02.032Z,71.30
2018-04-15T12:26:29.519Z,72.00
2018-04-15T12:28:56.269Z,72.00
2018-04-15T12:31:23.014Z,73.10
2018-04-15T12:33:49.673Z,73.00
2018-04-15T12:36:18.044Z,77.20
2018-04-15T12:38:44.889Z,77.20
2018-04-15T12:41:11.638Z,76.70
2018-04-15T12:43:38.382Z,77.20
2018-04-15T12:46:05.148Z,76.80
2018-04-15T12:48:31.857Z,74.60
2018-04-15T12:50:59.315Z,76.00
2018-04-15T12:53:27.110Z,75.50
2018-04-15T12:55:53.801Z,75.50
2018-04-15T12:58:20.441Z,76.60
2018-04-15T13:00:47.127Z,75.70
2018-04-15T13:03:14.580Z,77.80
2018-04-15T13:05:42.067Z,76.60
2018-04-15T13:08:08.812Z,76.60
2018-04-15T13:10:35.560Z,77.70
2018-04-15T13:13:02.408Z,76.30
2018-04-15T13:15:29.160Z,76.30
2018-04-15T13:17:55.902Z,77.40
2018-04-15T13:20:22.852Z,78.60
2018-04-15T13:22:49.700Z,79.10
2018-04-15T13:25:16.531Z,79.10
2018-04-15T13:27:44.122Z,81.30
2018-04-15T13:30:10.776Z,81.30
2018-04-15T13:32:37.441Z,82.50
2018-04-15T13:35:04.250Z,84.00
2018-04-15T13:37:30.996Z,83.30
2018-04-15T13:39:57.743Z,82.70
2018-04-15T13:42:24.590Z,83.80
2018-04-15T13:44:51.751Z,82.90
2018-04-15T13:47:18.696Z,83.10
2018-04-15T13:49:46.057Z,83.10
2018-04-15T13:52:14.856Z,84.30
2018-04-15T13:54:41.698Z,87.80
2018-04-15T13:57:08.451Z,90.00
2018-04-15T13:59:35.706Z,90.50
2018-04-15T14:02:02.363Z,91.50
2018-04-15T14:04:29.916Z,91.50
2018-04-15T14:06:57.091Z,91.40
2018-04-15T14:09:24.007Z,91.00
2018-04-15T14:11:51.651Z,91.20
2018-04-15T14:14:18.515Z,90.80
2018-04-15T14:16:46.006Z,91.90
2018-04-15T14:19:12.745Z,91.90
2018-04-15T14:21:39.454Z,92.90
2018-04-15T14:24:06.955Z,93.00
2018-04-15T14:26:33.699Z,93.00
2018-04-15T14:29:00.552Z,92.80
2018-04-15T14:31:27.526Z,92.50
2018-04-15T14:33:54.652Z,92.90
2018-04-15T14:36:21.402Z,92.50
2018-04-15T14:38:48.968Z,91.10
2018-04-15T14:41:15.715Z,91.10
2018-04-15T14:43:42.438Z,90.00
2018-04-15T14:46:09.919Z,91.50
2018-04-15T14:48:36.667Z,91.40
2018-04-15T14:51:03.411Z,91.50
2018-04-15T14:53:30.166Z,91.90
2018-04-15T14:55:56.842Z,91.60
2018-04-15T14:58:23.654Z,92.10
2018-04-15T15:00:50.500Z,92.30
2018-04-15T15:03:17.251Z,91.40
2018-04-15T15:05:44.013Z,90.60
2018-04-15T15:08:10.950Z,90.60
2018-04-15T15:10:37.930Z,90.80
2018-04-15T15:13:04.878Z,90.30
2018-04-15T15:15:32.207Z,90.90
2018-04-15T15:17:58.956Z,90.80
2018-04-15T15:20:25.698Z,90.70
2018-04-15T15:22:52.651Z,91.10
2018-04-15T15:25:19.455Z,91.40
2018-04-15T15:27:47.065Z,92.60
2018-04-15T15:30:13.811Z,92.20
2018-04-15T15:32:40.557Z,92.50
2018-04-15T15:35:07.304Z,92.40
2018-04-15T15:37:34.049Z,93.60
2018-04-15T15:40:00.743Z,94.10
2018-04-15T15:42:27.545Z,95.10
2018-04-15T15:44:54.289Z,95.70
2018-04-15T15:47:21.327Z,95.80
2018-04-15T15:49:47.983Z,96.40
2018-04-15T15:52:14.628Z,96.70
2018-04-15T15:54:41.479Z,96.90
2018-04-15T15:57:08.329Z,97.00
2018-04-15T15:59:35.099Z,96.70
2018-04-15T16:02:02.226Z,97.00
2018-04-15T16:04:28.975Z,97.70
2018-04-15T16:06:55.718Z,98.00
2018-04-15T16:09:22.467Z,98.30
2018-04-15T16:11:49.418Z,98.30
2018-04-15T16:14:16.164Z,98.30
2018-04-15T16:16:42.907Z,99.20
2018-04-15T16:19:09.759Z,99.60
2018-04-15T16:21:36.610Z,99.70
2018-04-15T16:24:03.668Z,99.90
2018-04-15T16:26:30.508Z,99.90
2018-04-15T16:28:57.259Z,99.90
2018-04-15T16:31:24.002Z,99.90
2018-04-15T16:33:50.832Z,99.90
2018-04-15T16:36:18.213Z,99.90
2018-04-15T16:38:45.066Z,99.70
2018-04-15T16:41:12.650Z,99.90
2018-04-15T16:43:39.570Z,99.90
2018-04-15T16:46:06.733Z,99.90
2018-04-15T16:48:33.684Z,99.90
2018-04-15T16:51:00.472Z,99.90
2018-04-15T16:53:27.278Z,99.90
2018-04-15T16:55:54.328Z,99.90
2018-04-15T16:58:21.186Z,99.90
2018-04-15T17:00:50.074Z,99.90
2018-04-15T17:03:16.820Z,99.90
2018-04-15T17:05:43.563Z,99.90
2018-04-15T17:08:10.417Z,99.90
2018-04-15T17:10:37.162Z,99.90
2018-04-15T17:13:04.013Z,99.90
2018-04-15T17:15:30.753Z,99.90
2018-04-15T17:17:57.706Z,99.90
2018-04-15T17:20:24.451Z,99.90
2018-04-15T17:22:51.301Z,99.90
2018-04-15T17:25:18.072Z,99.90
2018-04-15T17:27:44.899Z,99.90
2018-04-15T17:30:12.155Z,99.90
2018-04-15T17:32:39.002Z,99.90
2018-04-15T17:35:05.846Z,99.90
2018-04-15T17:37:32.577Z,99.90
2018-04-15T17:39:59.328Z,99.90
2018-04-15T17:42:26.109Z,99.90
2018-04-15T17:44:53.146Z,99.90
2018-04-15T17:47:20.002Z,99.90
2018-04-15T17:49:46.841Z,99.90
2018-04-15T17:52:13.588Z,99.90
2018-04-15T17:54:40.439Z,99.90
2018-04-15T17:57:07.495Z,99.90
2018-04-15T17:59:34.334Z,99.90
2018-04-15T18:02:01.184Z,99.90
2018-04-15T18:04:27.936Z,99.90
2018-04-15T18:06:54.887Z,99.90
2018-04-15T18:09:21.628Z,99.90
2018-04-15T18:11:48.480Z,99.90
2018-04-15T18:14:15.435Z,99.90
2018-04-15T18:16:42.176Z,99.90
2018-04-15T18:19:08.945Z,99.90
2018-04-15T18:21:35.813Z,99.90
2018-04-15T18:24:02.858Z,99.90
2018-04-15T18:26:29.673Z,99.90
2018-04-15T18:28:56.524Z,99.90
2018-04-15T18:31:23.299Z,99.90
2018-04-15T18:33:50.014Z,99.90
2018-04-15T18:36:16.761Z,99.90
2018-04-15T18:38:44.671Z,99.90
2018-04-15T18:41:11.694Z,99.90
2018-04-15T18:43:39.070Z,99.90
2018-04-15T18:46:06.511Z,99.90
2018-04-15T18:48:33.257Z,99.90
2018-04-15T18:51:00.053Z,99.90
2018-04-15T18:53:26.859Z,99.90
2018-04-15T18:55:53.704Z,99.90
2018-04-15T18:58:21.069Z,99.90
2018-04-15T19:00:48.100Z,99.90
2018-04-15T19:03:15.167Z,99.90
2018-04-15T19:05:42.012Z,99.90
2018-04-15T19:08:08.759Z,99.90
2018-04-15T19:10:35.508Z,99.90
2018-04-15T19:13:02.459Z,99.90
2018-04-15T19:15:29.206Z,99.90
2018-04-15T19:17:56.155Z,99.90
2018-04-15T19:20:23.115Z,99.90
2018-04-15T19:22:49.853Z,99.90
2018-04-15T19:25:16.599Z,99.90
2018-04-15T19:27:43.550Z,99.90
2018-04-15T19:30:11.365Z,99.90
2018-04-15T19:32:38.176Z,99.90
2018-04-15T19:35:05.016Z,99.90
2018-04-15T19:37:31.763Z,99.90
2018-04-15T19:39:58.509Z,99.90
2018-04-15T19:42:27.751Z,99.90
2018-04-15T19:44:55.276Z,99.90
2018-04-15T19:47:22.108Z,99.90
2018-04-15T19:49:48.973Z,99.90
2018-04-15T19:52:15.673Z,99.90
2018-04-15T19:54:43.048Z,99.90
2018-04-15T19:57:10.030Z,99.90
2018-04-15T19:59:37.472Z,99.90
2018-04-15T20:02:04.344Z,99.90
2018-04-15T20:04:31.390Z,99.90
2018-04-15T20:06:58.130Z,99.90
2018-04-15T20:09:24.890Z,99.90
2018-04-15T20:11:51.649Z,99.90
2018-04-15T20:14:18.713Z,99.90
2018-04-15T20:16:46.260Z,99.90
2018-04-15T20:19:14.233Z,99.90
2018-04-15T20:21:41.234Z,99.90
2018-04-15T20:24:09.715Z,99.90
2018-04-15T20:26:36.715Z,99.90
2018-04-15T20:29:04.144Z,99.90
2018-04-15T20:31:31.344Z,99.90
2018-04-15T20:33:58.592Z,99.90
2018-04-15T20:36:26.061Z,99.90
2018-04-15T20:38:54.928Z,99.90
2018-04-15T20:41:22.595Z,99.90
2018-04-15T20:43:49.368Z,99.90
2018-04-15T20:46:16.129Z,99.90
2018-04-15T20:48:43.574Z,99.90
2018-04-15T20:51:10.739Z,99.90
2018-04-15T20:53:38.701Z,99.90
2018-04-15T20:56:05.756Z,99.90
2018-04-15T20:58:34.447Z,99.90
2018-04-15T21:01:01.402Z,99.90
2018-04-15T21:03:28.225Z,99.90
2018-04-15T21:05:55.201Z,99.90
2018-04-15T21:08:22.167Z,99.90
2018-04-15T21:10:49.332Z,99.90
2018-04-15T21:13:16.359Z,99.90
2018-04-15T21:15:43.312Z,99.90
2018-04-15T21:18:10.168Z,99.90
2018-04-15T21:20:37.114Z,99.90
2018-04-15T21:23:05.493Z,99.90
2018-04-15T21:25:32.553Z,99.90
2018-04-15T21:27:59.401Z,99.90
2018-04-15T21:30:26.349Z,99.90
2018-04-15T21:32:54.011Z,99.90
2018-04-15T21:35:20.862Z,99.90
2018-04-15T21:37:47.824Z,99.90
2018-04-15T21:40:14.867Z,99.90
2018-04-15T21:42:42.328Z,99.90
2018-04-15T21:45:09.075Z,99.90
2018-04-15T21:47:35.922Z,99.90
2018-04-15T21:50:02.873Z,99.90
2018-04-15T21:52:29.631Z,99.90
2018-04-15T21:54:56.571Z,99.90
2018-04-15T21:57:24.034Z,99.90
2018-04-15T21:59:50.992Z,99.90
2018-04-15T22:02:18.345Z,99.90
2018-04-15T22:04:45.500Z,99.90
2018-04-15T22:07:13.273Z,99.90
2018-04-15T22:09:40.119Z,99.90
2018-04-15T22:12:14.026Z,99.90
2018-04-15T22:14:41.041Z,99.90
2018-04-15T22:17:07.827Z,99.90
2018-04-15T22:19:34.800Z,99.90
2018-04-15T22:22:01.933Z,99.90
2018-04-15T22:24:28.797Z,99.90
2018-04-15T22:26:55.630Z,99.90
2018-04-15T22:29:22.481Z,99.90
2018-04-15T22:31:50.046Z,99.90
2018-04-15T22:34:17.509Z,99.90
2018-04-15T22:36:44.606Z,99.90
2018-04-15T22:39:11.518Z,99.90
2018-04-15T22:41:38.466Z,99.90
2018-04-15T22:44:05.311Z,99.90
2018-04-15T22:46:32.058Z,99.90
2018-04-15T22:48:59.010Z,99.90
2018-04-15T22:51:25.948Z,99.90
2018-04-15T22:53:52.806Z,99.90
2018-04-15T22:56:20.072Z,99.90
2018-04-15T22:58:46.795Z,99.90
2018-04-15T23:01:16.109Z,99.90
2018-04-15T23:03:45.481Z,99.90
2018-04-15T23:06:13.828Z,99.90
2018-04-15T23:08:42.298Z,99.90
2018-04-15T23:11:09.345Z,99.90
2018-04-15T23:13:37.012Z,99.90
2018-04-15T23:16:04.989Z,99.90
2018-04-15T23:18:33.265Z,99.90
2018-04-15T23:21:00.232Z,99.90
2018-04-15T23:23:27.373Z,99.90
2018-04-15T23:25:54.150Z,99.90
2018-04-15T23:28:21.278Z,99.90
2018-04-15T23:30:48.227Z,99.90
2018-04-15T23:33:14.984Z,99.90
2018-04-15T23:35:42.896Z,99.90
2018-04-15T23:38:09.702Z,99.90
2018-04-15T23:40:36.540Z,99.90
2018-04-15T23:43:03.702Z,99.90
2018-04-15T23:45:30.459Z,99.90
2018-04-15T23:47:57.302Z,99.90
2018-04-15T23:50:24.241Z,99.90
2018-04-15T23:52:50.991Z,99.90
2018-04-15T23:55:20.119Z,99.90
2018-04-15T23:57:47.357Z,99.90
